Time;durP1;ratioP1;P1;durP2;ratioP2;P2;SDS_P1;SDS_P2;PMS_P1;PMS_P2;Temp;Humidity;BMP_temperature;BMP_pressure;BME280_temperature;BME280_humidity;BME280_pressure;Samples;Min_cycle;Max_cycle;Signal;HPM_P1;HPM_P2
2022/12/03 00:00:01;;;;;;;468.57;379.70;;;;;;;0.61;65.57;102167.09;4212626;28;20289;-59
2022/12/03 00:02:04;;;;;;;473.20;397.83;;;;;;;0.63;65.38;102170.56;4210532;28;20333;-59
2022/12/03 00:04:07;;;;;;;472.47;396.23;;;;;;;0.62;65.63;102166.16;4212242;28;20285;-60
2022/12/03 00:06:09;;;;;;;459.57;343.03;;;;;;;0.61;65.64;102164.44;4210097;28;20304;-58
2022/12/03 00:08:12;;;;;;;456.70;326.80;;;;;;;0.62;65.30;102166.16;4212220;28;20305;-58
2022/12/03 00:10:15;;;;;;;453.43;320.57;;;;;;;0.60;65.38;102160.06;4211565;28;20296;-59
2022/12/03 00:12:17;;;;;;;614.67;557.13;;;;;;;0.60;65.34;102160.06;4212204;28;20273;-59
2022/12/03 00:14:19;;;;;;;563.27;506.10;;;;;;;0.59;65.46;102161.84;4211676;28;20300;-58
2022/12/03 00:16:22;;;;;;;88.43;83.43;;;;;;;0.59;65.63;102158.34;4211124;28;20304;-58
2022/12/03 00:18:26;;;;;;;131.07;124.73;;;;;;;0.55;65.44;102155.00;4212030;28;20210;-59
2022/12/03 00:20:28;;;;;;;4.33;4.23;;;;;;;0.60;65.54;102160.94;4193122;28;20305;-58
2022/12/03 00:22:30;;;;;;;0.80;0.80;;;;;;;0.59;65.64;102156.53;4211893;28;20285;-56
2022/12/03 00:24:32;;;;;;;5.53;5.33;;;;;;;0.58;65.28;102157.50;4193398;28;20325;-58
2022/12/03 00:26:35;;;;;;;9.53;9.20;;;;;;;0.59;65.50;102163.66;4203456;28;20616;-56
2022/12/03 00:28:37;;;;;;;524.83;486.23;;;;;;;0.61;65.28;102154.69;4206395;28;20308;-59
2022/12/03 00:30:39;;;;;;;595.43;537.80;;;;;;;0.64;65.26;102158.97;4199354;28;20322;-59
2022/12/03 00:32:42;;;;;;;505.80;450.80;;;;;;;0.65;65.12;102158.03;4212935;28;20870;-59
2022/12/03 00:34:45;;;;;;;510.37;457.23;;;;;;;0.66;64.88;102159.78;4195975;28;20294;-60
2022/12/03 00:36:48;;;;;;;454.53;335.30;;;;;;;0.62;65.07;102155.53;4194856;28;20306;-58
2022/12/03 00:38:52;;;;;;;457.07;342.90;;;;;;;0.59;64.91;102161.00;4194624;28;20198;-57
2022/12/03 00:40:54;;;;;;;451.50;344.33;;;;;;;0.56;65.04;102159.34;4196768;28;20313;-58
2022/12/03 00:42:56;;;;;;;448.53;319.47;;;;;;;0.57;65.02;102147.78;4195510;28;20265;-59
2022/12/03 00:44:58;;;;;;;469.47;378.17;;;;;;;0.58;65.07;102151.28;4193440;28;20277;-58
2022/12/03 00:47:01;;;;;;;452.40;343.20;;;;;;;0.58;64.98;102144.19;4190855;28;20280;-57
2022/12/03 00:49:03;;;;;;;448.57;335.57;;;;;;;0.57;65.02;102153.09;4196141;28;20277;-56
2022/12/03 00:51:07;;;;;;;459.87;373.40;;;;;;;0.58;65.18;102148.63;4198237;28;20326;-58
2022/12/03 00:53:09;;;;;;;454.10;335.53;;;;;;;0.57;64.96;102158.41;4195824;28;20282;-56
2022/12/03 00:55:11;;;;;;;447.83;327.90;;;;;;;0.56;65.07;102154.03;4175198;28;20277;-56
2022/12/03 00:57:14;;;;;;;449.60;346.47;;;;;;;0.56;65.22;102154.03;4203801;28;20300;-60
2022/12/03 00:59:16;;;;;;;453.17;340.07;;;;;;;0.56;65.03;102148.72;4201103;28;20202;-59
2022/12/03 01:01:18;;;;;;;458.10;356.00;;;;;;;0.54;64.99;102154.09;4194478;28;20304;-60
2022/12/03 01:03:20;;;;;;;464.23;382.63;;;;;;;0.57;65.00;102154.91;4198651;28;20281;-60
2022/12/03 01:05:23;;;;;;;450.83;327.00;;;;;;;0.57;64.93;102158.41;4189625;28;20305;-58
2022/12/03 01:07:26;;;;;;;453.70;343.57;;;;;;;0.55;64.51;102152.34;4198007;28;20661;-59
2022/12/03 01:09:29;;;;;;;447.40;327.83;;;;;;;0.54;64.75;102158.56;4198619;28;20277;-58
2022/12/03 01:11:37;;;;;;;440.93;294.97;;;;;;;0.53;64.65;102159.50;4197753;28;20317;-60
2022/12/03 01:13:39;;;;;;;466.67;365.33;;;;;;;0.50;64.67;102149.91;4200729;28;20269;-57
2022/12/03 01:15:42;;;;;;;451.67;327.63;;;;;;;0.49;64.53;102158.81;4179382;28;20337;-59
2022/12/03 01:17:44;;;;;;;450.37;344.37;;;;;;;0.48;64.54;102149.09;4193859;28;20313;-57
2022/12/03 01:19:46;;;;;;;454.57;331.50;;;;;;;0.47;64.64;102160.69;4201791;28;20924;-58
2022/12/03 01:21:50;;;;;;;485.30;432.03;;;;;;;0.45;64.79;102161.69;4191617;28;20304;-56
2022/12/03 01:23:54;;;;;;;521.73;466.87;;;;;;;0.48;64.93;102162.38;4202023;28;20281;-57
2022/12/03 01:25:56;;;;;;;537.17;481.80;;;;;;;0.48;65.11;102151.75;4196981;28;20313;-60
2022/12/03 01:27:59;;;;;;;540.90;485.50;;;;;;;0.50;64.68;102159.66;4198625;28;20293;-58
2022/12/03 01:30:01;;;;;;;504.50;449.80;;;;;;;0.49;65.12;102147.31;4189463;28;20732;-60
2022/12/03 01:32:18;;;;;;;521.53;466.40;;;;;;;0.47;64.84;102151.84;4188786;28;20283;-59
2022/12/03 01:34:23;;;;;;;533.00;477.53;;;;;;;0.48;64.72;102156.22;4201002;28;20656;-58
2022/12/03 01:36:25;;;;;;;489.60;434.43;;;;;;;0.43;64.90;102148.47;4214125;28;20325;-58
2022/12/03 01:38:28;;;;;;;512.73;458.17;;;;;;;0.41;64.91;102153.00;4215325;28;20316;-59
2022/12/03 01:40:31;;;;;;;503.23;448.70;;;;;;;0.41;65.03;102154.78;4195804;28;20260;-58
2022/12/03 01:42:36;;;;;;;527.30;472.10;;;;;;;0.42;64.93;102156.53;4204583;28;20304;-58
2022/12/03 01:44:40;;;;;;;558.60;501.77;;;;;;;0.44;65.02;102154.63;4215358;28;20280;-58
2022/12/03 01:46:42;;;;;;;558.63;502.03;;;;;;;0.41;65.02;102139.72;4214133;28;20355;-61
2022/12/03 01:48:45;;;;;;;531.23;474.93;;;;;;;0.49;64.78;102156.16;4198214;28;20649;-59
2022/12/03 01:50:47;;;;;;;522.13;466.03;;;;;;;0.49;64.67;102148.16;4211548;28;20337;-54
2022/12/03 01:52:52;;;;;;;552.40;495.30;;;;;;;0.49;64.48;102147.31;4215226;28;20269;-57
2022/12/03 01:54:56;;;;;;;546.00;489.00;;;;;;;0.49;64.53;102147.31;4214847;28;20294;-61
2022/12/03 01:56:59;;;;;;;541.03;484.53;;;;;;;0.48;64.61;102143.78;4186344;28;20244;-59
2022/12/03 01:59:01;;;;;;;548.40;491.87;;;;;;;0.48;64.32;102143.78;4206062;28;20691;-60
2022/12/03 02:01:09;;;;;;;527.97;472.07;;;;;;;0.45;64.51;102143.09;4213398;28;20779;-59
2022/12/03 02:03:13;;;;;;;486.00;410.63;;;;;;;0.45;64.13;102146.59;4214616;28;20303;-59
2022/12/03 02:05:19;;;;;;;490.10;409.77;;;;;;;0.43;64.21;102144.97;4213988;28;20281;-59
2022/12/03 02:07:24;;;;;;;470.53;384.60;;;;;;;0.40;64.36;102139.81;4214772;28;20306;-60
2022/12/03 02:09:26;;;;;;;464.03;368.60;;;;;;;0.39;64.25;102146.91;4214891;28;20722;-58
2022/12/03 02:11:31;;;;;;;461.47;366.00;;;;;;;0.41;64.42;102146.81;4213885;28;20316;-57
2022/12/03 02:13:35;;;;;;;456.33;346.53;;;;;;;0.41;64.43;102144.16;4196080;28;20285;-58
2022/12/03 02:15:40;;;;;;;470.00;401.50;;;;;;;0.39;64.27;102140.72;4213016;28;20325;-60
2022/12/03 02:17:43;;;;;;;456.73;343.13;;;;;;;0.41;64.43;102144.16;4214244;28;20301;-58
2022/12/03 02:19:46;;;;;;;443.80;307.60;;;;;;;0.41;64.48;102138.84;4214243;28;20368;-59
2022/12/03 02:21:56;;;;;;;448.70;328.70;;;;;;;0.41;64.46;102142.38;4212327;28;20230;-60
2022/12/03 02:24:04;;;;;;;457.37;357.90;;;;;;;0.42;64.62;102149.41;4214207;28;20668;-58
2022/12/03 02:26:08;;;;;;;439.30;289.00;;;;;;;0.42;64.15;102144.09;4213272;28;20308;-58
2022/12/03 02:28:11;;;;;;;438.33;298.13;;;;;;;0.42;64.16;102143.22;4214463;28;20643;-58
2022/12/03 02:30:14;;;;;;;438.97;303.90;;;;;;;0.42;64.11;102148.56;4213406;28;20627;-58
2022/12/03 02:32:22;;;;;;;469.17;388.37;;;;;;;0.39;64.23;102149.56;4214162;28;20277;-59
2022/12/03 02:34:37;;;;;;;475.83;414.80;;;;;;;0.38;64.45;102146.97;4213112;28;20664;-58
2022/12/03 02:36:40;;;;;;;470.00;392.93;;;;;;;0.39;64.28;102148.69;4213492;28;20321;-61
2022/12/03 02:38:44;;;;;;;469.83;392.23;;;;;;;0.37;64.18;102140.81;4213883;28;20313;-60
2022/12/03 02:40:48;;;;;;;464.00;371.23;;;;;;;0.35;64.22;102146.19;4213519;28;20313;-59
2022/12/03 02:42:55;;;;;;;462.97;375.67;;;;;;;0.35;64.30;102140.88;4213770;28;20647;-59
2022/12/03 02:45:00;;;;;;;453.53;348.13;;;;;;;0.36;64.45;102139.06;4214056;28;20682;-58
2022/12/03 02:47:03;;;;;;;434.60;275.43;;;;;;;0.37;64.39;102148.78;4212678;28;20320;-58
2022/12/03 02:49:06;;;;;;;444.60;311.90;;;;;;;0.40;64.27;102150.44;4214385;28;20272;-56
2022/12/03 02:51:11;;;;;;;438.83;309.37;;;;;;;0.40;64.46;102145.97;4203097;28;20325;-58
2022/12/03 02:53:15;;;;;;;442.30;305.23;;;;;;;0.41;64.46;102144.16;4211293;28;20276;-58
2022/12/03 02:55:18;;;;;;;440.17;303.13;;;;;;;0.42;64.45;102140.56;4200633;28;20273;-59
2022/12/03 02:57:20;;;;;;;438.30;290.27;;;;;;;0.42;64.26;102140.56;4206856;28;20313;-58
2022/12/03 02:59:24;;;;;;;435.47;284.37;;;;;;;0.42;64.19;102151.22;4208123;28;20759;-58
2022/12/03 03:01:26;;;;;;;435.27;282.77;;;;;;;0.40;64.19;102145.97;4212957;28;20324;-60
2022/12/03 03:03:29;;;;;;;429.73;256.33;;;;;;;0.40;64.29;102145.13;4213992;28;20228;-59
2022/12/03 03:05:33;;;;;;;438.13;299.37;;;;;;;0.38;64.28;102145.19;4212770;28;20313;-59
2022/12/03 03:07:35;;;;;;;428.30;260.03;;;;;;;0.35;64.45;102143.53;4214006;28;20309;-58
2022/12/03 03:09:38;;;;;;;434.73;283.50;;;;;;;0.37;64.30;102140.81;4213393;28;20281;-59
2022/12/03 03:11:43;;;;;;;436.13;294.60;;;;;;;0.37;64.32;102134.63;4190782;28;20231;-58
2022/12/03 03:13:46;;;;;;;432.30;272.97;;;;;;;0.35;64.66;102140.03;4206170;28;20273;-57
2022/12/03 03:15:50;;;;;;;434.23;282.43;;;;;;;0.37;64.50;102139.94;4214330;28;20789;-58
2022/12/03 03:17:52;;;;;;;438.07;303.10;;;;;;;0.37;64.31;102138.16;4213623;28;20252;-59
2022/12/03 03:19:54;;;;;;;436.83;311.00;;;;;;;0.31;64.36;102139.34;4209916;28;20277;-59
2022/12/03 03:21:57;;;;;;;429.13;285.60;;;;;;;0.34;64.53;102132.97;4208292;28;20337;-58
2022/12/03 03:23:59;;;;;;;428.33;279.30;;;;;;;0.35;64.52;102132.91;4213156;28;20217;-58
2022/12/03 03:26:03;;;;;;;459.60;344.97;;;;;;;0.34;64.32;102131.16;4211740;28;20313;-60
2022/12/03 03:28:06;;;;;;;457.83;347.17;;;;;;;0.34;64.25;102138.28;4194782;28;20338;-59
2022/12/03 03:30:10;;;;;;;451.97;320.13;;;;;;;0.31;64.46;102136.69;4207959;28;20273;-58
2022/12/03 03:32:13;;;;;;;455.33;339.70;;;;;;;0.25;64.56;102113.06;4199742;28;20288;-59
2022/12/03 03:34:16;;;;;;;464.00;371.07;;;;;;;0.28;64.61;102123.53;4210536;28;20316;-58
2022/12/03 03:36:19;;;;;;;447.47;323.73;;;;;;;0.31;64.72;102130.47;4211021;28;20795;-58
2022/12/03 03:38:22;;;;;;;450.73;333.77;;;;;;;0.30;64.48;102126.97;4212353;28;20309;-58
2022/12/03 03:40:25;;;;;;;452.97;339.07;;;;;;;0.31;64.72;102130.47;4211664;28;20321;-57
2022/12/03 03:42:27;;;;;;;443.13;314.83;;;;;;;0.30;64.37;102120.81;4212775;28;20288;-60
2022/12/03 03:44:30;;;;;;;445.53;324.53;;;;;;;0.32;64.47;102117.13;4212684;28;20197;-58
2022/12/03 03:46:33;;;;;;;452.47;348.43;;;;;;;0.34;64.27;102117.03;4197735;28;20304;-60
2022/12/03 03:48:37;;;;;;;479.93;413.00;;;;;;;0.31;64.63;102122.50;4213073;28;20301;-57
2022/12/03 03:50:39;;;;;;;468.63;397.47;;;;;;;0.31;64.48;102125.16;4208964;28;20340;-60
2022/12/03 03:52:42;;;;;;;472.03;394.23;;;;;;;0.30;64.37;102111.03;4212872;28;20281;-60
2022/12/03 03:54:48;;;;;;;463.87;372.50;;;;;;;0.28;64.29;102112.91;4212755;28;20667;-59
2022/12/03 03:56:50;;;;;;;455.87;343.43;;;;;;;0.27;64.64;102108.53;4211410;28;20308;-58
2022/12/03 03:58:52;;;;;;;443.07;299.10;;;;;;;0.33;64.78;102108.22;4212102;28;20305;-59
2022/12/03 04:00:56;;;;;;;450.47;338.07;;;;;;;0.34;64.42;102107.25;4211847;28;20316;-59
2022/12/03 04:02:58;;;;;;;440.63;299.03;;;;;;;0.32;64.39;102101.16;4212620;28;20309;-59
2022/12/03 04:05:02;;;;;;;444.70;322.13;;;;;;;0.29;64.80;102092.50;4211551;28;20212;-61
2022/12/03 04:07:04;;;;;;;448.10;327.23;;;;;;;0.28;64.54;102091.66;4212554;28;20276;-58
2022/12/03 04:09:06;;;;;;;446.80;330.70;;;;;;;0.27;64.32;102100.53;4212913;28;20261;-59
2022/12/03 04:13:28;;;;;;;450.70;336.90;;;;;;;0.30;64.50;102097.72;4212545;28;20272;-61
2022/12/03 04:15:31;;;;;;;458.57;350.03;;;;;;;0.27;64.74;102091.72;4211721;28;20312;-59
2022/12/03 04:17:33;;;;;;;447.17;322.97;;;;;;;0.28;64.66;102091.66;4212938;28;20652;-57
2022/12/03 04:19:34;;;;;;;463.03;352.10;;;;;;;0.27;64.86;102087.25;4213060;28;20301;-60
2022/12/03 04:23:59;;;;;;;458.00;359.00;;;;;;;0.28;65.19;102088.09;4212462;28;20300;-59
2022/12/03 04:30:41;;;;;;;445.83;304.47;;;;;;;0.26;65.54;102085.53;4208284;28;20317;-60
2022/12/03 04:37:39;;;;;;;453.27;345.97;;;;;;;0.23;66.32;102087.50;4159757;28;20310;-58
2022/12/03 04:39:41;;;;;;;458.90;346.90;;;;;;;0.22;66.10;102081.31;4163630;28;20295;-57
2022/12/03 04:41:43;;;;;;;464.23;362.83;;;;;;;0.23;66.25;102093.66;4211484;28;20301;-57
2022/12/03 04:46:02;;;;;;;463.93;374.83;;;;;;;0.24;66.49;102090.06;4208577;28;20232;-58
2022/12/03 04:48:05;;;;;;;479.10;395.23;;;;;;;0.24;66.54;102090.06;4206857;28;20305;-59
2022/12/03 04:50:08;;;;;;;451.23;336.17;;;;;;;0.26;66.71;102093.50;4203879;28;20877;-59
2022/12/03 04:52:12;;;;;;;440.93;312.43;;;;;;;0.26;66.73;102096.16;4212426;28;20276;-59
2022/12/03 04:54:16;;;;;;;458.17;358.23;;;;;;;0.26;66.99;102087.34;4212301;28;20629;-58
2022/12/03 04:56:18;;;;;;;473.33;398.63;;;;;;;0.27;67.06;102087.25;4206660;28;20314;-58
2022/12/03 04:58:20;;;;;;;460.07;372.67;;;;;;;0.27;66.95;102086.41;4212373;28;20296;-59
2022/12/03 05:00:22;;;;;;;462.07;372.90;;;;;;;0.25;67.38;102081.16;4211712;28;20336;-58
2022/12/03 05:02:25;;;;;;;442.53;308.37;;;;;;;0.26;67.55;102076.72;4211222;28;20688;-58
2022/12/03 05:04:27;;;;;;;436.97;296.97;;;;;;;0.23;67.68;102082.19;4212403;28;20299;-59
2022/12/03 05:06:29;;;;;;;457.80;356.07;;;;;;;0.20;67.79;102072.53;4211197;28;20229;-59
2022/12/03 05:08:32;;;;;;;464.30;369.13;;;;;;;0.20;68.03;102077.84;4212608;28;20663;-58
2022/12/03 05:10:36;;;;;;;436.30;277.07;;;;;;;0.21;67.83;102076.09;4222873;28;20298;-59
2022/12/03 05:12:38;;;;;;;442.00;296.63;;;;;;;0.22;68.02;102076.00;4206706;28;20286;-60
2022/12/03 05:14:40;;;;;;;438.70;282.27;;;;;;;0.22;68.01;102075.13;4206415;28;20293;-59
2022/12/03 05:16:45;;;;;;;448.33;325.00;;;;;;;0.23;68.24;102076.84;4210868;28;20316;-59
2022/12/03 05:18:47;;;;;;;449.10;313.03;;;;;;;0.22;68.27;102068.03;4211832;28;20301;-58
2022/12/03 05:20:49;;;;;;;448.20;300.37;;;;;;;0.23;68.32;102067.09;4207663;28;20301;-58
2022/12/03 05:22:51;;;;;;;441.57;297.03;;;;;;;0.22;68.35;102065.38;4205507;28;20727;-57
2022/12/03 05:24:53;;;;;;;444.73;299.80;;;;;;;0.19;68.46;102060.22;4199596;28;20844;-58
2022/12/03 05:26:57;;;;;;;476.97;393.07;;;;;;;0.21;68.41;102062.81;4201909;28;20624;-58
2022/12/03 05:28:59;;;;;;;446.57;298.60;;;;;;;0.18;68.37;102066.47;4203893;28;20281;-55
2022/12/03 05:31:01;;;;;;;436.37;289.70;;;;;;;0.15;68.72;102062.16;4207236;28;20766;-58
2022/12/03 05:33:04;;;;;;;432.73;264.30;;;;;;;0.15;68.93;102067.47;4208648;28;20277;-59
2022/12/03 05:35:07;;;;;;;436.43;291.23;;;;;;;0.16;69.11;102065.69;4207916;28;20299;-59
2022/12/03 05:37:09;;;;;;;449.97;315.63;;;;;;;0.15;69.10;102070.13;4198866;28;20634;-58
2022/12/03 05:39:12;;;;;;;430.13;278.63;;;;;;;0.15;69.52;102066.63;4212193;28;20276;-60
2022/12/03 05:43:35;;;;;;;413.57;231.03;;;;;;;0.13;69.61;102063.19;4193422;28;20322;-59
2022/12/03 05:45:39;;;;;;;449.47;301.30;;;;;;;0.15;69.92;102061.31;4207719;28;20325;-59
2022/12/03 05:47:41;;;;;;;456.27;334.30;;;;;;;0.16;69.97;102066.53;4210753;28;20629;-56
2022/12/03 05:49:43;;;;;;;447.07;305.33;;;;;;;0.17;69.65;102067.38;4214371;28;20280;-58
2022/12/03 05:51:45;;;;;;;448.27;320.77;;;;;;;0.14;69.78;102060.44;4214508;28;20344;-58
2022/12/03 05:53:48;;;;;;;441.03;284.83;;;;;;;0.12;69.87;102058.78;4214209;28;20276;-57
2022/12/03 05:55:50;;;;;;;426.93;259.13;;;;;;;0.13;70.03;102049.91;4208914;28;20328;-57
2022/12/03 05:57:52;;;;;;;441.13;291.33;;;;;;;0.13;69.99;102060.53;4206086;28;20297;-57
2022/12/03 05:59:56;;;;;;;428.63;257.50;;;;;;;0.14;70.25;102059.56;4195432;28;20305;-58
2022/12/03 06:01:58;;;;;;;432.43;275.43;;;;;;;0.12;70.23;102058.78;4203099;28;20293;-57
2022/12/03 06:04:00;;;;;;;420.47;234.17;;;;;;;0.13;70.45;102061.38;4210324;28;20308;-59
2022/12/03 06:06:03;;;;;;;424.33;254.13;;;;;;;0.11;70.49;102052.63;4211507;28;20309;-59
2022/12/03 06:08:05;;;;;;;417.53;231.50;;;;;;;0.10;70.45;102056.22;4213915;28;20300;-57
2022/12/03 06:10:10;;;;;;;415.47;222.70;;;;;;;0.10;70.54;102050.06;4214280;28;20622;-58
2022/12/03 06:12:12;;;;;;;408.23;203.03;;;;;;;0.06;70.31;102056.44;4213974;28;20281;-56
2022/12/03 06:14:14;;;;;;;410.07;222.50;;;;;;;0.04;70.66;102056.53;4214679;28;20272;-57
2022/12/03 06:16:18;;;;;;;448.10;323.40;;;;;;;0.05;70.60;102055.59;4213128;28;20308;-57
2022/12/03 06:18:20;;;;;;;456.33;341.23;;;;;;;0.05;70.42;102060.91;4214319;28;20790;-57
2022/12/03 06:20:22;;;;;;;445.63;317.47;;;;;;;0.08;70.60;102063.41;4213226;28;20316;-59
2022/12/03 06:22:25;;;;;;;441.97;294.47;;;;;;;0.10;70.69;102058.88;4214274;28;20284;-59
2022/12/03 06:24:27;;;;;;;456.47;352.73;;;;;;;0.13;70.53;102061.38;4214297;28;20928;-58
2022/12/03 06:26:30;;;;;;;437.73;287.50;;;;;;;0.15;70.39;102063.97;4210380;28;20313;-59
2022/12/03 06:28:32;;;;;;;415.47;231.07;;;;;;;0.11;70.47;102063.25;4214189;28;20297;-58
2022/12/03 06:30:34;;;;;;;411.80;218.97;;;;;;;0.11;70.51;102057.94;4212477;28;20746;-58
2022/12/03 06:32:38;;;;;;;438.90;289.43;;;;;;;0.10;70.81;102060.69;4204844;28;20278;-57
2022/12/03 06:34:40;;;;;;;440.03;295.00;;;;;;;0.11;70.51;102059.72;4212480;28;20245;-57
2022/12/03 06:36:42;;;;;;;432.43;283.13;;;;;;;0.09;70.70;102067.75;4208009;28;20321;-58
2022/12/03 06:38:45;;;;;;;438.63;310.40;;;;;;;0.11;70.67;102070.34;4207918;28;20300;-60
2022/12/03 06:40:47;;;;;;;433.20;278.97;;;;;;;0.12;70.80;102064.09;4212861;28;20316;-58
2022/12/03 06:42:49;;;;;;;422.50;235.87;;;;;;;0.11;70.61;102060.59;4213367;28;20591;-60
2022/12/03 06:44:51;;;;;;;426.23;251.83;;;;;;;0.10;70.42;102060.69;4213308;28;20296;-57
2022/12/03 06:46:54;;;;;;;423.07;256.80;;;;;;;0.07;70.57;102059.03;4194028;28;20325;-58
2022/12/03 06:48:57;;;;;;;422.13;256.53;;;;;;;0.07;70.72;102061.69;4213418;28;20193;-60
2022/12/03 06:51:00;;;;;;;427.60;282.03;;;;;;;0.08;70.96;102059.88;4212179;28;20309;-58
2022/12/03 06:53:02;;;;;;;422.53;257.13;;;;;;;0.05;70.95;102058.25;4209389;28;20277;-57
2022/12/03 06:55:05;;;;;;;411.83;218.67;;;;;;;0.04;71.07;102058.31;4211555;28;20898;-57
2022/12/03 06:57:07;;;;;;;409.77;224.97;;;;;;;0.05;71.26;102057.38;4213244;28;20769;-58
2022/12/03 06:59:10;;;;;;;407.73;213.17;;;;;;;0.03;71.41;102053.94;4212341;28;20293;-58
2022/12/03 07:01:12;;;;;;;410.90;231.63;;;;;;;0.01;71.57;102063.78;4208322;28;20734;-60
2022/12/03 07:03:14;;;;;;;407.63;227.90;;;;;;;0.03;71.81;102067.22;4212084;28;20284;-58
2022/12/03 07:05:18;;;;;;;401.20;217.83;;;;;;;0.05;71.87;102060.03;4204357;28;21092;-60
2022/12/03 07:07:21;;;;;;;425.40;290.47;;;;;;;0.06;71.96;102064.41;4209690;28;20735;-57
2022/12/03 07:09:23;;;;;;;482.57;405.13;;;;;;;0.04;71.95;102059.19;4211564;28;20213;-57
2022/12/03 07:11:31;;;;;;;485.90;415.67;;;;;;;-0.07;71.80;102049.09;4209006;28;20868;-60
2022/12/03 07:13:33;;;;;;;486.27;408.97;;;;;;;-0.04;72.05;102056.91;4211442;28;20297;-56
2022/12/03 07:15:36;;;;;;;480.23;416.83;;;;;;;-0.06;72.47;102044.66;4210901;28;20300;-57
2022/12/03 07:17:38;;;;;;;454.53;335.10;;;;;;;-0.01;72.38;102062.06;4213069;28;20308;-55
2022/12/03 07:19:41;;;;;;;449.90;317.03;;;;;;;-0.03;72.50;102053.31;4208547;28;20285;-56
2022/12/03 07:21:44;;;;;;;448.70;314.97;;;;;;;-0.01;72.44;102070.03;4209864;28;20379;-56
2022/12/03 07:23:47;;;;;;;447.80;325.13;;;;;;;0.03;72.72;102056.59;4205948;28;20754;-57
2022/12/03 07:25:49;;;;;;;432.60;270.77;;;;;;;0.03;72.36;102065.41;4210598;28;20325;-58
2022/12/03 07:27:51;;;;;;;433.60;286.80;;;;;;;0.06;72.42;102065.25;4212746;28;20309;-59
2022/12/03 07:29:54;;;;;;;428.00;260.60;;;;;;;0.05;72.15;102058.25;4212756;28;20604;-60
2022/12/03 07:31:56;;;;;;;433.90;262.97;;;;;;;0.05;72.28;102057.38;4209055;28;20715;-59
2022/12/03 07:33:58;;;;;;;437.20;293.83;;;;;;;0.04;72.28;102069.81;4193824;28;20755;-61
2022/12/03 07:36:00;;;;;;;451.13;318.17;;;;;;;-0.01;72.10;102061.22;4209174;28;20348;-55
2022/12/03 07:38:04;;;;;;;462.40;343.13;;;;;;;0.04;72.11;102058.31;4208544;28;20746;-56
2022/12/03 07:40:08;;;;;;;452.77;341.23;;;;;;;0.09;71.80;102066.91;4211943;28;20264;-59
2022/12/03 07:42:10;;;;;;;442.87;317.70;;;;;;;0.09;71.57;102064.25;4212347;28;20276;-57
2022/12/03 07:44:13;;;;;;;474.67;382.77;;;;;;;0.07;71.45;102061.69;4191307;28;20297;-58
2022/12/03 07:46:16;;;;;;;441.00;319.73;;;;;;;0.04;71.52;102059.19;4205640;28;20312;-56
2022/12/03 07:48:19;;;;;;;443.97;314.13;;;;;;;0.03;71.56;102068.06;4210961;28;20300;-58
2022/12/03 07:50:21;;;;;;;426.80;275.43;;;;;;;0.03;71.69;102057.44;4207135;28;20669;-58
2022/12/03 07:52:24;;;;;;;434.07;291.43;;;;;;;0.06;71.52;102061.75;4212680;28;20280;-59
2022/12/03 07:54:28;;;;;;;456.30;341.90;;;;;;;0.05;71.68;102054.72;4208810;28;20356;-58
2022/12/03 07:56:30;;;;;;;469.60;369.47;;;;;;;0.06;71.46;102056.44;4205890;28;20320;-56
2022/12/03 07:58:33;;;;;;;454.37;342.47;;;;;;;0.05;71.51;102060.03;4206634;28;20306;-57
2022/12/03 08:00:35;;;;;;;447.47;313.50;;;;;;;0.05;71.49;102052.94;4191379;28;20321;-57
2022/12/03 08:02:37;;;;;;;444.70;312.63;;;;;;;0.02;71.20;102050.44;4210813;28;20313;-58
2022/12/03 08:04:39;;;;;;;432.40;273.63;;;;;;;0.01;71.07;102055.81;4210214;28;20726;-58
2022/12/03 08:06:41;;;;;;;473.97;355.30;;;;;;;-0.02;71.43;102059.47;4209610;28;20316;-59
2022/12/03 08:08:44;;;;;;;462.83;355.60;;;;;;;-0.03;71.60;102050.66;4209776;28;20305;-59
2022/12/03 08:10:47;;;;;;;446.73;329.13;;;;;;;-0.02;71.65;102051.50;4207785;28;20299;-59
2022/12/03 08:12:50;;;;;;;473.00;384.77;;;;;;;0.00;71.73;102049.66;4204821;28;20288;-61
2022/12/03 08:14:52;;;;;;;436.43;292.47;;;;;;;0.02;71.56;102042.47;4210289;28;20285;-61
2022/12/03 08:16:55;;;;;;;433.77;292.33;;;;;;;0.04;71.43;102045.03;4208848;28;20317;-59
2022/12/03 08:18:57;;;;;;;438.17;295.83;;;;;;;0.04;71.51;102037.94;4208836;28;20273;-57
2022/12/03 08:21:00;;;;;;;434.37;287.27;;;;;;;0.06;71.58;102043.16;4210114;28;20320;-57
2022/12/03 08:23:09;;;;;;;429.47;279.33;;;;;;;0.04;71.55;102039.72;4211003;28;20284;-56
2022/12/03 08:25:17;;;;;;;420.10;250.13;;;;;;;0.04;71.71;102034.41;4208590;28;20299;-57
2022/12/03 08:27:20;;;;;;;416.97;235.63;;;;;;;0.02;71.87;102045.13;4193572;28;20309;-57
2022/12/03 08:29:24;;;;;;;418.63;252.10;;;;;;;0.03;71.93;102040.66;4211940;28;20276;-56
2022/12/03 08:31:26;;;;;;;430.83;277.57;;;;;;;0.03;72.19;102035.34;4210762;28;20279;-58
2022/12/03 08:33:32;;;;;;;422.93;250.87;;;;;;;0.04;72.29;102029.09;4211627;28;20305;-60
2022/12/03 08:35:34;;;;;;;431.17;281.77;;;;;;;0.05;72.33;102034.34;4207636;28;20312;-59
2022/12/03 08:37:37;;;;;;;471.87;371.70;;;;;;;0.08;72.22;102035.97;4208468;28;20317;-57
2022/12/03 08:39:42;;;;;;;439.10;296.93;;;;;;;0.07;71.99;102036.91;4211507;28;20281;-56
2022/12/03 08:44:14;;;;;;;436.70;302.77;;;;;;;0.05;72.07;102038.78;4211274;28;20304;-54
2022/12/03 08:46:19;;;;;;;437.50;311.80;;;;;;;0.05;72.21;102041.44;4200093;28;20752;-54
2022/12/03 08:48:31;;;;;;;446.43;340.43;;;;;;;0.07;72.49;102039.56;4211393;28;20739;-54
2022/12/03 08:50:38;;;;;;;435.03;289.13;;;;;;;0.08;72.31;102041.28;4210633;28;20316;-58
2022/12/03 08:52:40;;;;;;;442.10;317.27;;;;;;;0.07;72.33;102035.13;4209832;28;20269;-59
2022/12/03 08:54:43;;;;;;;437.10;303.13;;;;;;;0.06;72.36;102033.38;4205246;28;20320;-57
2022/12/03 08:56:46;;;;;;;437.37;298.13;;;;;;;0.05;72.47;102031.69;4203356;28;20316;-57
2022/12/03 08:58:49;;;;;;;435.80;297.47;;;;;;;0.09;72.67;102030.56;4210824;28;20301;-57
2022/12/03 09:00:58;;;;;;;436.07;312.07;;;;;;;0.08;72.62;102036.84;4209698;28;20659;-60
2022/12/03 09:03:01;;;;;;;432.80;298.17;;;;;;;0.10;72.65;102031.44;4213176;28;20796;-56
2022/12/03 09:05:14;;;;;;;433.63;301.77;;;;;;;0.12;72.78;102033.06;4209686;28;21991;-55
2022/12/03 09:07:16;;;;;;;429.40;290.53;;;;;;;0.11;72.79;102022.53;4192799;28;20304;-54
2022/12/03 09:09:19;;;;;;;421.27;273.93;;;;;;;0.13;72.80;102034.81;4206252;28;20285;-58
2022/12/03 09:11:21;;;;;;;417.87;256.40;;;;;;;0.15;73.02;102037.38;4209830;28;20308;-57
2022/12/03 09:13:24;;;;;;;426.43;289.30;;;;;;;0.15;72.85;102027.59;4207724;28;20247;-56
2022/12/03 09:15:27;;;;;;;419.43;260.73;;;;;;;0.21;72.87;102030.91;4204402;28;20332;-56
2022/12/03 09:17:30;;;;;;;459.33;358.60;;;;;;;0.23;72.49;102029.03;4211396;28;20314;-57
2022/12/03 09:19:33;;;;;;;463.87;376.27;;;;;;;0.22;72.60;102027.28;4211165;28;20286;-56
2022/12/03 09:21:35;;;;;;;459.97;351.70;;;;;;;0.21;72.47;102021.13;4200408;28;20318;-56
2022/12/03 09:23:37;;;;;;;461.93;354.73;;;;;;;0.22;72.53;102027.28;4212180;28;20277;-57
2022/12/03 09:25:39;;;;;;;462.40;342.90;;;;;;;0.18;72.53;102019.47;4213370;28;20742;-59
2022/12/03 09:27:42;;;;;;;452.73;343.90;;;;;;;0.25;72.80;102021.81;4208783;28;20301;-59
2022/12/03 09:29:44;;;;;;;463.10;368.87;;;;;;;0.24;72.71;102014.81;4213065;28;20281;-59
2022/12/03 09:31:46;;;;;;;443.57;308.53;;;;;;;0.24;72.50;102010.34;4210659;28;20829;-56
2022/12/03 09:33:50;;;;;;;440.67;303.70;;;;;;;0.25;72.66;102013.84;4209823;28;20229;-58